createdAt,value
2017-10-16T00:00:30.337Z,101464.48
2017-10-16T00:03:04.570Z,101463.10
2017-10-16T00:05:36.617Z,101455.55
2017-10-16T00:08:08.642Z,101465.62
2017-10-16T00:10:40.717Z,101459.69
2017-10-16T00:13:12.748Z,101470.67
2017-10-16T00:15:45.124Z,101468.55
2017-10-16T00:18:23.457Z,101471.68
2017-10-16T00:20:55.855Z,101470.54
2017-10-16T00:23:27.806Z,101470.66
2017-10-16T00:25:59.794Z,101464.31
2017-10-16T00:28:32.106Z,101471.10
2017-10-16T00:31:04.750Z,101468.14
2017-10-16T00:33:37.379Z,101466.05
2017-10-16T00:36:09.445Z,101476.72
2017-10-16T00:38:41.446Z,101472.46
2017-10-16T00:43:47.075Z,101460.37
2017-10-16T00:46:21.428Z,101467.47
2017-10-16T00:48:53.820Z,101457.78
2017-10-16T00:51:26.427Z,101460.92
2017-10-16T00:53:58.449Z,101467.70
2017-10-16T00:56:32.408Z,101471.72
2017-10-16T00:59:05.220Z,101461.20
2017-10-16T01:01:37.752Z,101468.42
2017-10-16T01:04:10.430Z,101463.69
2017-10-16T01:06:42.741Z,101464.63
2017-10-16T01:09:14.931Z,101462.07
2017-10-16T01:11:47.007Z,101467.10
2017-10-16T01:14:19.402Z,101461.84
2017-10-16T01:16:51.946Z,101468.56
2017-10-16T01:19:24.054Z,101460.20
2017-10-16T01:21:56.197Z,101462.94
2017-10-16T01:24:28.728Z,101451.93
2017-10-16T01:27:00.952Z,101445.90
2017-10-16T01:29:33.190Z,101445.98
2017-10-16T01:32:06.235Z,101450.50
2017-10-16T01:34:38.637Z,101444.06
2017-10-16T01:37:11.214Z,101441.11
2017-10-16T01:39:43.376Z,101442.52
2017-10-16T01:42:15.715Z,101437.28
2017-10-16T01:44:48.062Z,101435.59
2017-10-16T01:47:21.469Z,101432.52
2017-10-16T01:49:53.991Z,101428.12
2017-10-16T01:52:26.364Z,101422.44
2017-10-16T01:54:58.465Z,101420.28
2017-10-16T01:57:30.754Z,101422.06
2017-10-16T02:00:04.377Z,101422.15
2017-10-16T02:02:38.009Z,101425.34
2017-10-16T02:05:10.234Z,101421.41
2017-10-16T02:07:42.817Z,101425.02
2017-10-16T02:10:15.513Z,101430.25
2017-10-16T02:12:47.665Z,101431.62
2017-10-16T02:15:21.449Z,101435.27
2017-10-16T02:17:53.422Z,101432.39
2017-10-16T02:20:25.767Z,101431.53
2017-10-16T02:22:57.804Z,101424.13
2017-10-16T02:25:29.916Z,101418.95
2017-10-16T02:28:03.236Z,101419.87
2017-10-16T02:30:35.274Z,101419.61
2017-10-16T02:33:07.846Z,101422.80
2017-10-16T02:35:39.934Z,101420.64
2017-10-16T02:38:12.103Z,101420.59
2017-10-16T02:40:44.569Z,101417.31
2017-10-16T02:43:16.980Z,101416.02
2017-10-16T02:45:49.414Z,101412.92
2017-10-16T02:48:22.352Z,101416.97
2017-10-16T02:50:54.670Z,101411.28
2017-10-16T02:53:27.216Z,101409.97
2017-10-16T02:55:59.411Z,101411.89
2017-10-16T02:58:31.479Z,101409.27
2017-10-16T03:01:04.450Z,101412.80
2017-10-16T03:03:36.743Z,101410.59
2017-10-16T03:06:09.196Z,101417.73
2017-10-16T03:08:42.251Z,101419.06
2017-10-16T03:11:14.993Z,101412.03
2017-10-16T03:16:22.294Z,101414.84
2017-10-16T03:18:54.329Z,101410.05
2017-10-16T03:21:27.121Z,101413.57
2017-10-16T03:23:59.407Z,101416.16
2017-10-16T03:26:31.739Z,101410.02
2017-10-16T03:29:04.096Z,101408.80
2017-10-16T03:31:37.529Z,101410.99
2017-10-16T03:34:10.111Z,101416.33
2017-10-16T03:36:42.217Z,101413.66
2017-10-16T03:39:14.962Z,101416.37
2017-10-16T03:41:47.357Z,101416.84
2017-10-16T03:44:21.702Z,101418.24
2017-10-16T03:46:54.439Z,101417.95
2017-10-16T03:49:26.713Z,101423.42
2017-10-16T03:51:58.898Z,101421.33
2017-10-16T03:54:31.462Z,101424.62
2017-10-16T03:57:03.804Z,101432.10
2017-10-16T03:59:36.114Z,101437.92
2017-10-16T04:02:08.415Z,101434.51
2017-10-16T04:04:40.419Z,101436.80
2017-10-16T04:07:13.424Z,101441.30
2017-10-16T04:09:46.245Z,101440.75
2017-10-16T04:12:18.534Z,101439.55
2017-10-16T04:14:53.680Z,101440.54
2017-10-16T04:20:30.024Z,101446.95
2017-10-16T04:23:02.137Z,101446.89
2017-10-16T04:25:33.589Z,101448.27
2017-10-16T04:28:06.450Z,101455.35
2017-10-16T04:30:37.886Z,101444.45
2017-10-16T04:33:11.467Z,101444.98
2017-10-16T04:35:44.196Z,101445.84
2017-10-16T04:38:15.741Z,101448.59
2017-10-16T04:40:47.020Z,101440.70
2017-10-16T04:43:19.078Z,101438.14
2017-10-16T04:45:50.850Z,101439.98
2017-10-16T04:48:22.664Z,101436.90
2017-10-16T04:50:56.936Z,101432.77
2017-10-16T04:53:28.117Z,101433.14
2017-10-16T04:55:59.400Z,101432.68
2017-10-16T04:58:30.981Z,101424.22
2017-10-16T05:01:02.684Z,101422.45
2017-10-16T05:03:38.387Z,101425.11
2017-10-16T05:06:14.181Z,101430.34
2017-10-16T05:08:46.194Z,101425.00
2017-10-16T05:11:24.553Z,101427.08
2017-10-16T05:13:55.964Z,101425.24
2017-10-16T05:16:28.826Z,101429.20
2017-10-16T05:21:46.401Z,101428.72
2017-10-16T05:24:21.447Z,101422.84
2017-10-16T05:26:53.285Z,101427.64
2017-10-16T05:29:27.746Z,101427.77
2017-10-16T05:38:23.969Z,101426.41
2017-10-16T05:41:11.249Z,101431.73
2017-10-16T05:43:44.461Z,101435.23
2017-10-16T05:46:17.160Z,101433.92
2017-10-16T05:48:48.888Z,101432.57
2017-10-16T05:51:20.716Z,101435.23
2017-10-16T05:53:52.091Z,101437.42
2017-10-16T05:56:23.552Z,101436.80
2017-10-16T05:59:00.449Z,101437.90
2017-10-16T06:01:33.271Z,101446.52
2017-10-16T06:04:05.585Z,101445.86
2017-10-16T06:06:37.059Z,101442.25
2017-10-16T06:09:11.415Z,101439.84
2017-10-16T06:11:42.856Z,101441.41
2017-10-16T06:14:14.458Z,101448.67
2017-10-16T06:16:46.061Z,101441.83
2017-10-16T06:19:17.202Z,101448.58
2017-10-16T06:21:48.548Z,101451.26
2017-10-16T06:24:21.581Z,101453.73
2017-10-16T06:26:54.012Z,101462.27
2017-10-16T06:29:25.834Z,101459.37
2017-10-16T06:31:57.395Z,101466.81
2017-10-16T06:34:30.359Z,101479.14
2017-10-16T06:37:04.634Z,101482.75
2017-10-16T06:39:35.971Z,101482.78
2017-10-16T06:42:08.762Z,101484.13
2017-10-16T06:44:42.900Z,101492.17
2017-10-16T06:47:15.564Z,101493.09
2017-10-16T06:49:48.801Z,101493.63
2017-10-16T06:52:22.142Z,101498.97
2017-10-16T06:54:53.719Z,101495.45
2017-10-16T06:57:32.967Z,101497.98
2017-10-16T07:00:12.590Z,101497.13
2017-10-16T07:02:44.608Z,101503.09
2017-10-16T07:05:19.187Z,101496.87
2017-10-16T07:07:52.575Z,101502.59
2017-10-16T07:13:25.198Z,101493.01
2017-10-16T07:15:59.387Z,101486.08
2017-10-16T07:18:31.788Z,101494.31
2017-10-16T07:21:04.025Z,101499.55
2017-10-16T07:23:37.535Z,101492.13
2017-10-16T07:26:10.343Z,101494.80
2017-10-16T07:28:42.723Z,101499.75
2017-10-16T07:31:14.718Z,101497.86
2017-10-16T07:33:46.703Z,101494.87
2017-10-16T07:36:20.720Z,101495.28
2017-10-16T07:38:53.635Z,101495.86
2017-10-16T07:41:27.245Z,101493.19
2017-10-16T07:43:59.632Z,101494.56
2017-10-16T07:46:33.260Z,101483.19
2017-10-16T07:49:06.320Z,101489.01
2017-10-16T07:51:39.859Z,101498.16
2017-10-16T07:54:12.354Z,101506.51
2017-10-16T07:56:48.958Z,101505.01
2017-10-16T07:59:22.330Z,101504.85
2017-10-16T08:01:54.369Z,101503.45
2017-10-16T08:05:00.210Z,101494.04
2017-10-16T08:07:32.535Z,101484.16
2017-10-16T08:10:06.238Z,101483.81
2017-10-16T08:12:38.345Z,101492.08
2017-10-16T08:15:10.374Z,101495.68
2017-10-16T08:17:42.878Z,101488.48
2017-10-16T08:20:15.165Z,101490.92
2017-10-16T08:22:47.358Z,101485.35
2017-10-16T08:25:22.557Z,101481.84
2017-10-16T08:27:54.645Z,101487.03
2017-10-16T08:30:31.679Z,101493.42
2017-10-16T08:33:04.735Z,101491.16
2017-10-16T08:35:36.829Z,101498.06
2017-10-16T08:40:54.515Z,101496.31
2017-10-16T08:43:27.335Z,101486.08
2017-10-16T08:45:59.210Z,101486.42
2017-10-16T08:48:31.687Z,101488.16
2017-10-16T08:51:05.070Z,101493.51
2017-10-16T08:59:50.669Z,101500.96
2017-10-16T09:02:30.253Z,101503.81
2017-10-16T09:05:02.077Z,101493.17
2017-10-16T09:07:33.355Z,101496.78
2017-10-16T09:16:19.464Z,101501.50
2017-10-16T09:18:52.099Z,101511.61
2017-10-16T09:24:27.666Z,101514.38
2017-10-16T09:27:01.083Z,101504.89
2017-10-16T09:29:33.773Z,101512.10
2017-10-16T09:32:06.575Z,101505.13
2017-10-16T09:34:38.910Z,101504.66
2017-10-16T09:37:11.045Z,101500.50
2017-10-16T09:39:43.340Z,101501.23
2017-10-16T09:42:16.769Z,101504.00
2017-10-16T09:44:49.010Z,101498.64
2017-10-16T09:47:21.008Z,101491.52
2017-10-16T09:49:54.177Z,101476.00
2017-10-16T09:52:26.438Z,101478.27
2017-10-16T09:55:00.078Z,101477.18
2017-10-16T09:57:32.212Z,101476.20
2017-10-16T10:00:05.359Z,101486.19
2017-10-16T10:02:38.016Z,101487.70
2017-10-16T10:05:10.177Z,101480.95
2017-10-16T10:07:42.410Z,101479.50
2017-10-16T10:10:14.525Z,101472.00
2017-10-16T10:12:46.718Z,101478.17
2017-10-16T10:15:19.203Z,101477.42
2017-10-16T10:17:51.417Z,101478.53
2017-10-16T10:20:23.507Z,101475.96
2017-10-16T10:22:56.902Z,101475.13
2017-10-16T10:25:29.047Z,101477.39
2017-10-16T10:28:04.243Z,101477.84
2017-10-16T10:30:36.355Z,101473.02
2017-10-16T10:33:08.360Z,101478.09
2017-10-16T10:35:40.999Z,101471.22
2017-10-16T10:38:13.200Z,101474.31
2017-10-16T10:40:45.240Z,101468.80
2017-10-16T10:46:07.395Z,101464.81
2017-10-16T10:48:39.818Z,101462.12
2017-10-16T10:51:12.132Z,101469.20
2017-10-16T10:53:45.058Z,101462.26
2017-10-16T10:56:17.316Z,101465.91
2017-10-16T10:58:49.556Z,101466.95
2017-10-16T11:01:21.811Z,101467.16
2017-10-16T11:03:55.536Z,101463.38
2017-10-16T11:06:28.508Z,101460.56
2017-10-16T11:09:00.769Z,101458.97
2017-10-16T11:11:33.006Z,101462.59
2017-10-16T11:14:06.517Z,101452.11
2017-10-16T11:16:40.153Z,101453.06
2017-10-16T11:19:12.644Z,101452.56
2017-10-16T11:21:45.188Z,101445.53
2017-10-16T11:24:17.365Z,101440.58
2017-10-16T11:26:49.490Z,101436.17
2017-10-16T11:29:22.290Z,101438.17
2017-10-16T11:31:54.865Z,101438.53
2017-10-16T11:34:27.584Z,101432.20
2017-10-16T11:37:01.074Z,101430.47
2017-10-16T11:39:33.372Z,101424.02
2017-10-16T11:42:07.523Z,101424.09
2017-10-16T11:44:39.746Z,101418.09
2017-10-16T11:47:12.405Z,101414.83
2017-10-16T11:49:44.705Z,101411.95
2017-10-16T11:52:17.201Z,101407.23
2017-10-16T11:54:49.310Z,101410.22
2017-10-16T11:57:21.772Z,101409.20
2017-10-16T11:59:54.767Z,101403.66
2017-10-16T12:02:26.973Z,101399.30
2017-10-16T12:05:00.092Z,101394.20
2017-10-16T12:07:32.707Z,101394.79
2017-10-16T12:10:06.293Z,101383.36
2017-10-16T12:12:38.852Z,101389.16
2017-10-16T12:15:11.046Z,101376.80
2017-10-16T12:17:43.522Z,101380.98
2017-10-16T12:20:15.608Z,101377.39
2017-10-16T12:22:47.793Z,101377.42
2017-10-16T12:25:20.395Z,101371.23
2017-10-16T12:27:52.721Z,101368.37
2017-10-16T12:30:25.047Z,101369.95
2017-10-16T12:32:58.972Z,101359.67
2017-10-16T12:35:31.476Z,101352.24
2017-10-16T12:38:05.184Z,101355.19
2017-10-16T12:40:37.856Z,101358.59
2017-10-16T12:43:10.811Z,101351.06
2017-10-16T12:45:43.396Z,101351.50
2017-10-16T12:48:15.655Z,101359.24
2017-10-16T12:50:48.124Z,101350.80
2017-10-16T12:53:20.944Z,101348.28
2017-10-16T12:55:53.409Z,101342.58
2017-10-16T12:58:26.343Z,101340.17
2017-10-16T13:01:00.436Z,101333.44
2017-10-16T13:03:32.996Z,101333.00
2017-10-16T13:06:06.268Z,101328.79
2017-10-16T13:08:39.135Z,101327.20
2017-10-16T13:11:11.655Z,101328.48
2017-10-16T13:13:45.613Z,101326.75
2017-10-16T13:16:19.196Z,101323.39
2017-10-16T13:21:29.523Z,101323.22
2017-10-16T13:24:03.236Z,101312.80
2017-10-16T13:26:35.844Z,101318.34
2017-10-16T13:29:08.403Z,101310.00
2017-10-16T13:31:41.536Z,101309.77
2017-10-16T13:34:14.155Z,101305.30
2017-10-16T13:36:46.731Z,101311.27
2017-10-16T13:39:19.744Z,101303.50
2017-10-16T13:41:52.132Z,101307.13
2017-10-16T13:44:24.716Z,101297.73
2017-10-16T13:46:59.012Z,101303.80
2017-10-16T13:49:31.521Z,101301.25
2017-10-16T13:52:05.996Z,101308.61
2017-10-16T13:54:38.895Z,101294.95
2017-10-16T13:57:11.521Z,101298.56
2017-10-16T13:59:44.415Z,101295.72
2017-10-16T14:02:16.712Z,101286.23
2017-10-16T14:04:49.160Z,101286.59
2017-10-16T14:07:22.143Z,101278.00
2017-10-16T14:09:55.815Z,101279.03
2017-10-16T14:12:29.164Z,101276.27
2017-10-16T14:15:05.350Z,101281.42
2017-10-16T14:17:38.196Z,101276.94
2017-10-16T14:20:10.620Z,101277.92
2017-10-16T14:22:43.060Z,101276.17
2017-10-16T14:25:15.663Z,101273.84
2017-10-16T14:27:49.237Z,101273.08
2017-10-16T14:30:21.771Z,101268.30
2017-10-16T14:32:54.660Z,101267.91
2017-10-16T14:35:27.531Z,101268.48
2017-10-16T14:38:03.094Z,101269.45
2017-10-16T14:40:36.964Z,101260.80
2017-10-16T14:43:10.440Z,101263.34
2017-10-16T14:45:43.788Z,101269.80
2017-10-16T14:48:17.996Z,101266.72
2017-10-16T14:50:50.523Z,101269.12
2017-10-16T14:53:22.804Z,101264.44
2017-10-16T14:56:05.691Z,101270.02
2017-10-16T14:58:37.963Z,101262.64
2017-10-16T15:01:31.843Z,101262.77
2017-10-16T15:04:05.151Z,101255.52
2017-10-16T15:06:37.918Z,101258.53
2017-10-16T15:09:10.237Z,101263.17
2017-10-16T15:11:42.527Z,101250.36
2017-10-16T15:14:15.212Z,101254.55
2017-10-16T15:16:54.684Z,101252.34
2017-10-16T15:19:32.255Z,101251.58
2017-10-16T15:22:08.212Z,101255.79
2017-10-16T15:24:51.639Z,101244.17
2017-10-16T15:27:25.436Z,101241.09
2017-10-16T15:30:01.116Z,101237.75
2017-10-16T15:32:33.796Z,101233.61
2017-10-16T15:35:06.939Z,101236.20
2017-10-16T15:37:45.816Z,101234.67
2017-10-16T15:43:12.992Z,101234.22
2017-10-16T15:45:47.216Z,101230.58
2017-10-16T15:48:19.781Z,101228.45
2017-10-16T15:50:52.339Z,101231.06
2017-10-16T15:53:24.937Z,101232.01
2017-10-16T15:55:58.393Z,101240.56
2017-10-16T15:58:30.977Z,101242.54
2017-10-16T16:01:06.644Z,101235.88
2017-10-16T16:06:44.336Z,101240.63
2017-10-16T16:09:16.786Z,101243.23
2017-10-16T16:11:50.044Z,101242.25
2017-10-16T16:14:27.152Z,101247.98
2017-10-16T16:16:59.504Z,101247.36
2017-10-16T16:19:31.916Z,101252.83
2017-10-16T16:22:06.196Z,101248.52
2017-10-16T16:24:38.520Z,101243.89
2017-10-16T16:27:10.876Z,101249.91
2017-10-16T16:29:43.520Z,101251.80
2017-10-16T16:32:16.152Z,101244.36
2017-10-16T16:34:48.995Z,101250.70
2017-10-16T16:37:22.117Z,101255.71
2017-10-16T16:39:54.820Z,101251.60
2017-10-16T16:42:29.432Z,101253.63
2017-10-16T16:45:02.320Z,101254.09
2017-10-16T16:47:35.964Z,101255.88
2017-10-16T16:50:08.729Z,101257.98
2017-10-16T16:52:41.337Z,101265.50
2017-10-16T16:55:13.558Z,101265.40
2017-10-16T16:57:45.705Z,101268.77
2017-10-16T17:00:19.576Z,101269.59
2017-10-16T17:02:52.216Z,101267.31
2017-10-16T17:05:25.817Z,101271.56
2017-10-16T17:07:58.096Z,101270.14
2017-10-16T17:10:30.423Z,101269.16
2017-10-16T17:13:02.968Z,101272.52
2017-10-16T17:15:35.256Z,101271.77
2017-10-16T17:18:09.576Z,101269.40
2017-10-16T17:20:41.745Z,101269.75
2017-10-16T17:23:13.997Z,101273.72
2017-10-16T17:25:46.635Z,101274.63
2017-10-16T17:28:20.504Z,101277.23
2017-10-16T17:30:52.734Z,101272.84
2017-10-16T17:33:26.978Z,101277.80
2017-10-16T17:36:00.439Z,101279.17
2017-10-16T17:38:33.311Z,101276.63
2017-10-16T17:41:06.253Z,101277.33
2017-10-16T17:43:38.722Z,101270.44
2017-10-16T17:46:12.731Z,101274.39
2017-10-16T17:48:45.068Z,101273.42
2017-10-16T17:51:18.043Z,101268.27
2017-10-16T17:53:50.280Z,101272.17
2017-10-16T17:56:24.687Z,101273.67
2017-10-16T17:58:57.744Z,101274.97
2017-10-16T18:01:31.459Z,101273.27
2017-10-16T18:04:07.229Z,101273.91
2017-10-16T18:06:39.606Z,101277.03
2017-10-16T18:09:11.998Z,101278.83
2017-10-16T18:11:44.784Z,101276.95
2017-10-16T18:14:19.049Z,101281.78
2017-10-16T18:16:52.397Z,101278.13
2017-10-16T18:19:26.413Z,101274.92
2017-10-16T18:21:58.569Z,101277.47
2017-10-16T18:24:30.893Z,101278.30
2017-10-16T18:27:03.765Z,101271.09
2017-10-16T18:29:36.030Z,101269.69
2017-10-16T18:32:08.567Z,101277.56
2017-10-16T18:34:42.379Z,101271.89
2017-10-16T18:37:14.886Z,101277.17
2017-10-16T18:39:47.866Z,101277.23
2017-10-16T18:42:21.917Z,101275.47
2017-10-16T18:44:54.384Z,101280.25
2017-10-16T18:47:28.252Z,101278.36
2017-10-16T18:50:01.391Z,101274.28
2017-10-16T18:52:33.872Z,101276.13
2017-10-16T18:55:06.393Z,101274.37
2017-10-16T18:57:39.308Z,101274.06
2017-10-16T19:00:11.898Z,101270.88
2017-10-16T19:02:45.144Z,101272.52
2017-10-16T19:05:17.555Z,101262.33
2017-10-16T19:07:50.440Z,101257.89
2017-10-16T19:10:24.698Z,101262.23
2017-10-16T19:12:57.602Z,101269.53
2017-10-16T19:15:30.146Z,101266.39
2017-10-16T19:18:03.734Z,101256.34
2017-10-16T19:20:36.373Z,101252.99
2017-10-16T19:23:15.074Z,101253.93
2017-10-16T19:25:47.713Z,101253.66
2017-10-16T19:28:20.421Z,101246.55
2017-10-16T19:30:52.978Z,101251.48
2017-10-16T19:33:26.901Z,101253.05
2017-10-16T19:36:00.513Z,101255.50
2017-10-16T19:38:32.953Z,101249.91
2017-10-16T19:41:06.434Z,101251.91
2017-10-16T19:43:39.354Z,101251.53
2017-10-16T19:46:18.123Z,101252.11
2017-10-16T19:48:50.623Z,101254.50
2017-10-16T19:51:23.114Z,101257.41
2017-10-16T19:53:55.563Z,101255.59
2017-10-16T19:56:29.211Z,101262.48
2017-10-16T19:59:01.984Z,101263.55
2017-10-16T20:01:34.141Z,101262.93
2017-10-16T20:04:11.952Z,101261.33
2017-10-16T20:06:44.046Z,101263.58
2017-10-16T20:09:16.984Z,101263.47
2017-10-16T20:11:49.430Z,101267.70
2017-10-16T20:14:23.874Z,101271.94
2017-10-16T20:16:56.089Z,101271.66
2017-10-16T20:19:30.079Z,101263.97
2017-10-16T20:22:03.366Z,101264.02
2017-10-16T20:24:35.603Z,101268.55
2017-10-16T20:27:09.256Z,101270.27
2017-10-16T20:29:41.388Z,101268.59
2017-10-16T20:32:14.704Z,101270.36
2017-10-16T20:34:47.146Z,101275.99
2017-10-16T20:37:19.393Z,101279.39
2017-10-16T20:39:52.534Z,101273.92
2017-10-16T20:42:25.895Z,101278.11
2017-10-16T20:44:58.209Z,101275.95
2017-10-16T20:47:30.765Z,101277.36
2017-10-16T20:50:05.768Z,101278.84
2017-10-16T20:52:38.235Z,101284.82
2017-10-16T20:55:10.543Z,101285.33
2017-10-16T20:57:44.645Z,101282.34
2017-10-16T21:00:18.016Z,101280.39
2017-10-16T21:02:50.326Z,101283.00
2017-10-16T21:05:23.281Z,101282.88
2017-10-16T21:07:56.634Z,101282.00
2017-10-16T21:10:29.988Z,101286.22
2017-10-16T21:13:03.148Z,101286.05
2017-10-16T21:15:35.546Z,101290.49
2017-10-16T21:18:11.183Z,101290.86
2017-10-16T21:20:45.752Z,101288.94
2017-10-16T21:23:18.457Z,101285.25
2017-10-16T21:25:50.787Z,101285.08
2017-10-16T21:28:24.157Z,101284.69
2017-10-16T21:30:56.432Z,101284.69
2017-10-16T21:33:30.002Z,101281.36
2017-10-16T21:36:04.726Z,101279.28
2017-10-16T21:38:37.720Z,101278.46
2017-10-16T21:41:10.225Z,101284.50
2017-10-16T21:43:43.073Z,101288.70
2017-10-16T21:46:16.189Z,101290.45
2017-10-16T21:48:49.728Z,101282.68
2017-10-16T21:51:26.200Z,101284.11
2017-10-16T21:53:58.847Z,101281.18
2017-10-16T21:56:32.028Z,101282.66
2017-10-16T21:59:05.780Z,101276.16
2017-10-16T22:01:37.729Z,101279.08
2017-10-16T22:04:10.063Z,101281.48
2017-10-16T22:06:42.541Z,101273.63
2017-10-16T22:09:14.755Z,101271.41
2017-10-16T22:11:46.801Z,101271.09
2017-10-16T22:14:20.362Z,101266.46
2017-10-16T22:16:52.712Z,101273.99
2017-10-16T22:19:25.171Z,101281.23
2017-10-16T22:21:57.707Z,101278.84
2017-10-16T22:24:30.682Z,101282.92
2017-10-16T22:27:02.948Z,101282.00
2017-10-16T22:29:35.710Z,101283.00
2017-10-16T22:32:08.883Z,101280.48
2017-10-16T22:34:41.818Z,101281.78
2017-10-16T22:37:13.950Z,101282.35
2017-10-16T22:39:46.241Z,101283.20
2017-10-16T22:42:19.985Z,101288.33
2017-10-16T22:44:53.663Z,101283.39
2017-10-16T22:47:27.357Z,101284.35
2017-10-16T22:49:59.530Z,101290.33
2017-10-16T22:52:32.380Z,101285.73
2017-10-16T22:55:04.822Z,101282.38
2017-10-16T22:57:36.916Z,101282.76
2017-10-16T23:00:11.194Z,101277.73
2017-10-16T23:02:43.163Z,101285.83
2017-10-16T23:05:16.272Z,101283.31
2017-10-16T23:07:48.796Z,101287.96
2017-10-16T23:10:21.992Z,101289.33
2017-10-16T23:12:54.184Z,101291.78
2017-10-16T23:15:27.657Z,101294.11
2017-10-16T23:17:59.740Z,101285.36
2017-10-16T23:20:33.139Z,101294.34
2017-10-16T23:23:06.341Z,101291.44
2017-10-16T23:25:38.531Z,101290.78
2017-10-16T23:28:13.205Z,101294.60
2017-10-16T23:30:46.055Z,101297.59
2017-10-16T23:33:18.240Z,101299.84
2017-10-16T23:35:50.419Z,101303.06
2017-10-16T23:38:22.860Z,101303.83
2017-10-16T23:40:55.090Z,101311.52
2017-10-16T23:43:28.964Z,101308.17
2017-10-16T23:46:03.552Z,101305.48
2017-10-16T23:48:36.608Z,101302.25
2017-10-16T23:51:08.872Z,101301.63
2017-10-16T23:53:41.036Z,101297.25
2017-10-16T23:56:14.187Z,101300.00
2017-10-16T23:58:46.237Z,101301.05
